sensor_id;sensor_type;location;lat;lon;timestamp;temperature;humidity
14122;DHT22;7139;48.114;11.442;2023-04-25T00:01:40;8.30;99.90
14122;DHT22;7139;48.114;11.442;2023-04-25T00:04:07;8.30;99.90
14122;DHT22;7139;48.114;11.442;2023-04-25T00:06:34;8.30;99.90
14122;DHT22;7139;48.114;11.442;2023-04-25T00:09:01;8.30;99.90
14122;DHT22;7139;48.114;11.442;2023-04-25T00:11:28;8.40;99.90
14122;DHT22;7139;48.114;11.442;2023-04-25T00:13:56;8.40;99.90
14122;DHT22;7139;48.114;11.442;2023-04-25T00:16:26;8.50;99.90
14122;DHT22;7139;48.114;11.442;2023-04-25T00:18:54;8.50;99.90
14122;DHT22;7139;48.114;11.442;2023-04-25T00:21:21;8.50;99.90
14122;DHT22;7139;48.114;11.442;2023-04-25T00:23:49;8.50;99.90
14122;DHT22;7139;48.114;11.442;2023-04-25T00:26:16;8.60;99.90
14122;DHT22;7139;48.114;11.442;2023-04-25T00:28:43;8.60;99.90
14122;DHT22;7139;48.114;11.442;2023-04-25T00:31:09;8.60;99.90
14122;DHT22;7139;48.114;11.442;2023-04-25T00:33:37;8.60;99.90
14122;DHT22;7139;48.114;11.442;2023-04-25T00:36:05;8.70;99.90
14122;DHT22;7139;48.114;11.442;2023-04-25T00:38:32;8.60;99.90
14122;DHT22;7139;48.114;11.442;2023-04-25T00:40:59;8.60;99.90
14122;DHT22;7139;48.114;11.442;2023-04-25T00:43:26;8.60;99.90
14122;DHT22;7139;48.114;11.442;2023-04-25T00:45:54;8.60;99.90
14122;DHT22;7139;48.114;11.442;2023-04-25T00:48:22;8.60;99.90
14122;DHT22;7139;48.114;11.442;2023-04-25T00:50:53;8.60;99.90
14122;DHT22;7139;48.114;11.442;2023-04-25T00:53:21;8.50;99.90
14122;DHT22;7139;48.114;11.442;2023-04-25T00:55:47;8.50;99.90
14122;DHT22;7139;48.114;11.442;2023-04-25T00:58:16;8.40;99.90
14122;DHT22;7139;48.114;11.442;2023-04-25T01:00:44;8.40;99.90
14122;DHT22;7139;48.114;11.442;2023-04-25T01:03:12;8.40;99.90
14122;DHT22;7139;48.114;11.442;2023-04-25T01:05:39;8.40;99.90
14122;DHT22;7139;48.114;11.442;2023-04-25T01:08:08;8.40;99.90
14122;DHT22;7139;48.114;11.442;2023-04-25T01:10:36;8.40;99.90
14122;DHT22;7139;48.114;11.442;2023-04-25T01:13:03;8.40;99.90
14122;DHT22;7139;48.114;11.442;2023-04-25T01:15:30;8.30;99.90
14122;DHT22;7139;48.114;11.442;2023-04-25T01:17:57;8.30;99.90
14122;DHT22;7139;48.114;11.442;2023-04-25T01:20:26;8.30;99.90
14122;DHT22;7139;48.114;11.442;2023-04-25T01:22:55;8.30;99.90
14122;DHT22;7139;48.114;11.442;2023-04-25T01:25:22;8.20;99.90
14122;DHT22;7139;48.114;11.442;2023-04-25T01:27:49;8.20;99.90
14122;DHT22;7139;48.114;11.442;2023-04-25T01:30:16;8.20;99.90
14122;DHT22;7139;48.114;11.442;2023-04-25T01:32:43;8.20;99.90
14122;DHT22;7139;48.114;11.442;2023-04-25T01:35:11;8.10;99.90
14122;DHT22;7139;48.114;11.442;2023-04-25T01:37:38;8.10;99.90
14122;DHT22;7139;48.114;11.442;2023-04-25T01:40:08;8.10;99.90
14122;DHT22;7139;48.114;11.442;2023-04-25T01:42:37;8.10;99.90
14122;DHT22;7139;48.114;11.442;2023-04-25T01:45:05;8.00;99.90
14122;DHT22;7139;48.114;11.442;2023-04-25T01:47:32;8.00;99.90
14122;DHT22;7139;48.114;11.442;2023-04-25T01:50:00;8.00;99.90
14122;DHT22;7139;48.114;11.442;2023-04-25T01:52:27;7.90;99.90
14122;DHT22;7139;48.114;11.442;2023-04-25T01:54:54;7.90;99.90
14122;DHT22;7139;48.114;11.442;2023-04-25T01:57:22;7.90;99.90
14122;DHT22;7139;48.114;11.442;2023-04-25T01:59:49;7.80;99.90
14122;DHT22;7139;48.114;11.442;2023-04-25T02:02:16;7.80;99.90
14122;DHT22;7139;48.114;11.442;2023-04-25T02:04:43;7.70;99.90
14122;DHT22;7139;48.114;11.442;2023-04-25T02:07:10;7.70;99.90
14122;DHT22;7139;48.114;11.442;2023-04-25T02:09:36;7.60;99.90
14122;DHT22;7139;48.114;11.442;2023-04-25T02:12:04;7.60;99.90
14122;DHT22;7139;48.114;11.442;2023-04-25T02:14:32;7.60;99.90
14122;DHT22;7139;48.114;11.442;2023-04-25T02:16:58;7.60;99.90
14122;DHT22;7139;48.114;11.442;2023-04-25T02:19:25;7.50;99.90
14122;DHT22;7139;48.114;11.442;2023-04-25T02:21:52;7.50;99.90
14122;DHT22;7139;48.114;11.442;2023-04-25T02:24:18;7.50;99.90
14122;DHT22;7139;48.114;11.442;2023-04-25T02:26:45;7.50;99.90
14122;DHT22;7139;48.114;11.442;2023-04-25T02:29:12;7.50;99.90
14122;DHT22;7139;48.114;11.442;2023-04-25T02:31:42;7.50;99.90
14122;DHT22;7139;48.114;11.442;2023-04-25T02:34:08;7.50;99.90
14122;DHT22;7139;48.114;11.442;2023-04-25T02:36:35;7.50;99.90
14122;DHT22;7139;48.114;11.442;2023-04-25T02:39:02;7.50;99.90
14122;DHT22;7139;48.114;11.442;2023-04-25T02:41:29;7.50;99.90
14122;DHT22;7139;48.114;11.442;2023-04-25T02:43:55;7.40;99.90
14122;DHT22;7139;48.114;11.442;2023-04-25T02:46:22;7.50;99.90
14122;DHT22;7139;48.114;11.442;2023-04-25T02:48:51;7.50;99.90
14122;DHT22;7139;48.114;11.442;2023-04-25T02:51:17;7.50;99.90
14122;DHT22;7139;48.114;11.442;2023-04-25T02:53:44;7.50;99.90
14122;DHT22;7139;48.114;11.442;2023-04-25T02:56:11;7.50;99.90
14122;DHT22;7139;48.114;11.442;2023-04-25T02:58:37;7.60;99.90
14122;DHT22;7139;48.114;11.442;2023-04-25T03:01:04;7.60;99.90
14122;DHT22;7139;48.114;11.442;2023-04-25T03:03:31;7.60;99.90
14122;DHT22;7139;48.114;11.442;2023-04-25T03:05:59;7.50;99.90
14122;DHT22;7139;48.114;11.442;2023-04-25T03:08:25;7.40;99.90
14122;DHT22;7139;48.114;11.442;2023-04-25T03:10:57;7.50;99.90
14122;DHT22;7139;48.114;11.442;2023-04-25T03:13:24;7.50;99.90
14122;DHT22;7139;48.114;11.442;2023-04-25T03:15:51;7.50;99.90
14122;DHT22;7139;48.114;11.442;2023-04-25T03:18:17;7.50;99.90
14122;DHT22;7139;48.114;11.442;2023-04-25T03:20:44;7.60;99.90
14122;DHT22;7139;48.114;11.442;2023-04-25T03:23:13;7.60;99.90
14122;DHT22;7139;48.114;11.442;2023-04-25T03:25:40;7.60;99.90
14122;DHT22;7139;48.114;11.442;2023-04-25T03:28:06;7.60;99.90
14122;DHT22;7139;48.114;11.442;2023-04-25T03:30:33;7.60;99.90
14122;DHT22;7139;48.114;11.442;2023-04-25T03:33:00;7.60;99.90
14122;DHT22;7139;48.114;11.442;2023-04-25T03:35:27;7.70;99.90
14122;DHT22;7139;48.114;11.442;2023-04-25T03:37:53;7.70;99.90
14122;DHT22;7139;48.114;11.442;2023-04-25T03:40:22;7.70;99.90
14122;DHT22;7139;48.114;11.442;2023-04-25T03:42:48;7.70;99.90
14122;DHT22;7139;48.114;11.442;2023-04-25T03:45:15;7.60;99.90
14122;DHT22;7139;48.114;11.442;2023-04-25T03:47:42;7.60;99.90
14122;DHT22;7139;48.114;11.442;2023-04-25T03:50:09;7.50;99.90
14122;DHT22;7139;48.114;11.442;2023-04-25T03:52:36;7.50;99.90
14122;DHT22;7139;48.114;11.442;2023-04-25T03:55:03;7.50;99.90
14122;DHT22;7139;48.114;11.442;2023-04-25T03:57:32;7.60;99.90
14122;DHT22;7139;48.114;11.442;2023-04-25T03:59:59;7.50;99.90
14122;DHT22;7139;48.114;11.442;2023-04-25T04:02:25;7.40;99.90
14122;DHT22;7139;48.114;11.442;2023-04-25T04:04:52;7.40;99.90
14122;DHT22;7139;48.114;11.442;2023-04-25T04:07:21;7.50;99.90
14122;DHT22;7139;48.114;11.442;2023-04-25T04:09:48;7.40;99.90
14122;DHT22;7139;48.114;11.442;2023-04-25T04:12:14;7.50;99.90
14122;DHT22;7139;48.114;11.442;2023-04-25T04:14:42;7.40;99.90
14122;DHT22;7139;48.114;11.442;2023-04-25T04:17:09;7.40;99.90
14122;DHT22;7139;48.114;11.442;2023-04-25T04:19:36;7.40;99.90
14122;DHT22;7139;48.114;11.442;2023-04-25T04:22:03;7.30;99.90
14122;DHT22;7139;48.114;11.442;2023-04-25T04:24:29;7.40;99.90
14122;DHT22;7139;48.114;11.442;2023-04-25T04:26:56;7.40;99.90
14122;DHT22;7139;48.114;11.442;2023-04-25T04:29:24;7.50;99.90
14122;DHT22;7139;48.114;11.442;2023-04-25T04:31:52;7.50;99.90
14122;DHT22;7139;48.114;11.442;2023-04-25T04:34:19;7.50;99.90
14122;DHT22;7139;48.114;11.442;2023-04-25T04:36:46;7.50;99.90
14122;DHT22;7139;48.114;11.442;2023-04-25T04:39:13;7.40;99.90
14122;DHT22;7139;48.114;11.442;2023-04-25T04:41:40;7.40;99.90
14122;DHT22;7139;48.114;11.442;2023-04-25T04:44:06;7.50;99.90
14122;DHT22;7139;48.114;11.442;2023-04-25T04:46:34;7.50;99.90
14122;DHT22;7139;48.114;11.442;2023-04-25T04:49:04;7.40;99.90
14122;DHT22;7139;48.114;11.442;2023-04-25T04:51:31;7.40;99.90
14122;DHT22;7139;48.114;11.442;2023-04-25T04:53:58;7.40;99.90
14122;DHT22;7139;48.114;11.442;2023-04-25T04:56:27;7.40;99.90
14122;DHT22;7139;48.114;11.442;2023-04-25T04:58:54;7.40;99.90
14122;DHT22;7139;48.114;11.442;2023-04-25T05:01:21;7.50;99.90
14122;DHT22;7139;48.114;11.442;2023-04-25T05:03:48;7.40;99.90
14122;DHT22;7139;48.114;11.442;2023-04-25T05:06:17;7.50;99.90
14122;DHT22;7139;48.114;11.442;2023-04-25T05:08:44;7.50;99.90
14122;DHT22;7139;48.114;11.442;2023-04-25T05:11:11;7.50;99.90
14122;DHT22;7139;48.114;11.442;2023-04-25T05:13:37;7.60;99.90
14122;DHT22;7139;48.114;11.442;2023-04-25T05:16:04;7.50;99.90
14122;DHT22;7139;48.114;11.442;2023-04-25T05:18:31;7.50;99.90
14122;DHT22;7139;48.114;11.442;2023-04-25T05:20:58;7.50;99.90
14122;DHT22;7139;48.114;11.442;2023-04-25T05:23:26;7.50;99.90
14122;DHT22;7139;48.114;11.442;2023-04-25T05:25:53;7.50;99.90
14122;DHT22;7139;48.114;11.442;2023-04-25T05:28:19;7.60;99.90
14122;DHT22;7139;48.114;11.442;2023-04-25T05:30:46;7.60;99.90
14122;DHT22;7139;48.114;11.442;2023-04-25T05:33:13;7.60;99.90
14122;DHT22;7139;48.114;11.442;2023-04-25T05:35:40;7.70;99.90
14122;DHT22;7139;48.114;11.442;2023-04-25T05:38:07;7.70;99.90
14122;DHT22;7139;48.114;11.442;2023-04-25T05:40:35;7.70;99.90
14122;DHT22;7139;48.114;11.442;2023-04-25T05:43:01;7.60;99.90
14122;DHT22;7139;48.114;11.442;2023-04-25T05:45:28;7.60;99.90
14122;DHT22;7139;48.114;11.442;2023-04-25T05:47:55;7.60;99.90
14122;DHT22;7139;48.114;11.442;2023-04-25T05:50:22;7.60;99.90
14122;DHT22;7139;48.114;11.442;2023-04-25T05:52:49;7.50;99.90
14122;DHT22;7139;48.114;11.442;2023-04-25T05:55:16;7.30;99.90
14122;DHT22;7139;48.114;11.442;2023-04-25T05:57:44;7.10;99.90
14122;DHT22;7139;48.114;11.442;2023-04-25T06:00:13;6.90;99.90
14122;DHT22;7139;48.114;11.442;2023-04-25T06:02:41;6.80;99.90
14122;DHT22;7139;48.114;11.442;2023-04-25T06:05:08;6.80;99.90
14122;DHT22;7139;48.114;11.442;2023-04-25T06:07:35;6.80;99.90
14122;DHT22;7139;48.114;11.442;2023-04-25T06:10:02;6.80;99.90
14122;DHT22;7139;48.114;11.442;2023-04-25T06:12:31;6.90;99.90
14122;DHT22;7139;48.114;11.442;2023-04-25T06:14:59;6.90;99.90
14122;DHT22;7139;48.114;11.442;2023-04-25T06:17:26;7.00;99.90
14122;DHT22;7139;48.114;11.442;2023-04-25T06:19:53;7.10;99.90
14122;DHT22;7139;48.114;11.442;2023-04-25T06:22:19;7.20;99.90
14122;DHT22;7139;48.114;11.442;2023-04-25T06:24:46;7.20;99.90
14122;DHT22;7139;48.114;11.442;2023-04-25T06:27:13;7.30;99.90
14122;DHT22;7139;48.114;11.442;2023-04-25T06:29:40;7.30;99.90
14122;DHT22;7139;48.114;11.442;2023-04-25T06:32:08;7.30;99.90
14122;DHT22;7139;48.114;11.442;2023-04-25T06:34:34;7.40;99.90
14122;DHT22;7139;48.114;11.442;2023-04-25T06:37:01;7.50;99.90
14122;DHT22;7139;48.114;11.442;2023-04-25T06:39:28;7.60;99.90
14122;DHT22;7139;48.114;11.442;2023-04-25T06:41:55;7.70;99.90
14122;DHT22;7139;48.114;11.442;2023-04-25T06:44:22;7.80;99.90
14122;DHT22;7139;48.114;11.442;2023-04-25T06:46:51;7.80;99.90
14122;DHT22;7139;48.114;11.442;2023-04-25T06:49:19;7.80;99.90
14122;DHT22;7139;48.114;11.442;2023-04-25T06:51:46;7.90;99.90
14122;DHT22;7139;48.114;11.442;2023-04-25T06:54:13;7.90;99.90
14122;DHT22;7139;48.114;11.442;2023-04-25T06:56:39;7.90;99.90
14122;DHT22;7139;48.114;11.442;2023-04-25T06:59:06;8.00;99.90
14122;DHT22;7139;48.114;11.442;2023-04-25T07:01:33;8.00;99.90
14122;DHT22;7139;48.114;11.442;2023-04-25T07:04:00;8.00;99.90
14122;DHT22;7139;48.114;11.442;2023-04-25T07:06:28;8.00;99.90
14122;DHT22;7139;48.114;11.442;2023-04-25T07:08:56;8.00;99.90
14122;DHT22;7139;48.114;11.442;2023-04-25T07:11:23;8.10;99.90
14122;DHT22;7139;48.114;11.442;2023-04-25T07:13:50;8.10;99.90
14122;DHT22;7139;48.114;11.442;2023-04-25T07:16:17;8.20;99.90
14122;DHT22;7139;48.114;11.442;2023-04-25T07:18:43;8.30;99.90
14122;DHT22;7139;48.114;11.442;2023-04-25T07:21:10;8.40;99.90
14122;DHT22;7139;48.114;11.442;2023-04-25T07:23:38;8.40;99.90
14122;DHT22;7139;48.114;11.442;2023-04-25T07:26:06;8.40;99.90
14122;DHT22;7139;48.114;11.442;2023-04-25T07:28:33;8.40;99.90
14122;DHT22;7139;48.114;11.442;2023-04-25T07:30:59;8.50;99.90
14122;DHT22;7139;48.114;11.442;2023-04-25T07:33:27;8.50;99.90
14122;DHT22;7139;48.114;11.442;2023-04-25T07:35:54;8.60;99.90
14122;DHT22;7139;48.114;11.442;2023-04-25T07:38:21;8.70;99.90
14122;DHT22;7139;48.114;11.442;2023-04-25T07:40:49;8.80;99.90
14122;DHT22;7139;48.114;11.442;2023-04-25T07:43:16;9.00;99.90
14122;DHT22;7139;48.114;11.442;2023-04-25T07:45:43;9.20;99.90
14122;DHT22;7139;48.114;11.442;2023-04-25T07:48:09;9.40;99.90
14122;DHT22;7139;48.114;11.442;2023-04-25T07:50:36;9.40;99.90
14122;DHT22;7139;48.114;11.442;2023-04-25T07:53:03;9.50;99.90
14122;DHT22;7139;48.114;11.442;2023-04-25T07:55:30;9.60;99.90
14122;DHT22;7139;48.114;11.442;2023-04-25T07:57:58;9.90;99.90
14122;DHT22;7139;48.114;11.442;2023-04-25T08:00:25;9.90;99.90
14122;DHT22;7139;48.114;11.442;2023-04-25T08:02:51;9.90;99.90
14122;DHT22;7139;48.114;11.442;2023-04-25T08:05:18;10.10;99.90
14122;DHT22;7139;48.114;11.442;2023-04-25T08:07:45;10.40;99.90
14122;DHT22;7139;48.114;11.442;2023-04-25T08:10:11;10.60;99.90
14122;DHT22;7139;48.114;11.442;2023-04-25T08:12:38;10.70;99.90
14122;DHT22;7139;48.114;11.442;2023-04-25T08:15:09;10.80;99.90
14122;DHT22;7139;48.114;11.442;2023-04-25T08:17:35;10.80;99.90
14122;DHT22;7139;48.114;11.442;2023-04-25T08:20:02;10.50;99.90
14122;DHT22;7139;48.114;11.442;2023-04-25T08:22:31;10.40;99.90
14122;DHT22;7139;48.114;11.442;2023-04-25T08:24:58;10.40;99.90
14122;DHT22;7139;48.114;11.442;2023-04-25T08:27:24;10.40;99.90
14122;DHT22;7139;48.114;11.442;2023-04-25T08:29:51;10.30;99.90
14122;DHT22;7139;48.114;11.442;2023-04-25T08:32:20;10.30;99.90
14122;DHT22;7139;48.114;11.442;2023-04-25T08:34:47;10.40;99.90
14122;DHT22;7139;48.114;11.442;2023-04-25T08:37:14;10.70;99.90
14122;DHT22;7139;48.114;11.442;2023-04-25T08:39:41;11.00;99.90
14122;DHT22;7139;48.114;11.442;2023-04-25T08:42:08;11.20;99.90
14122;DHT22;7139;48.114;11.442;2023-04-25T08:44:35;11.30;99.90
14122;DHT22;7139;48.114;11.442;2023-04-25T08:47:03;11.50;99.90
14122;DHT22;7139;48.114;11.442;2023-04-25T08:49:32;11.60;99.20
14122;DHT22;7139;48.114;11.442;2023-04-25T08:52:00;11.70;99.60
14122;DHT22;7139;48.114;11.442;2023-04-25T08:54:28;11.60;99.10
14122;DHT22;7139;48.114;11.442;2023-04-25T08:56:57;12.00;99.40
14122;DHT22;7139;48.114;11.442;2023-04-25T08:59:24;12.30;99.00
14122;DHT22;7139;48.114;11.442;2023-04-25T09:01:52;12.30;96.40
14122;DHT22;7139;48.114;11.442;2023-04-25T09:04:19;12.40;97.60
14122;DHT22;7139;48.114;11.442;2023-04-25T09:06:47;12.50;96.90
14122;DHT22;7139;48.114;11.442;2023-04-25T09:09:14;12.20;96.20
14122;DHT22;7139;48.114;11.442;2023-04-25T09:11:41;12.40;97.20
14122;DHT22;7139;48.114;11.442;2023-04-25T09:14:12;12.60;97.30
14122;DHT22;7139;48.114;11.442;2023-04-25T09:16:58;13.00;96.20
14122;DHT22;7139;48.114;11.442;2023-04-25T09:19:27;13.20;94.40
14122;DHT22;7139;48.114;11.442;2023-04-25T09:21:56;13.20;94.30
14122;DHT22;7139;48.114;11.442;2023-04-25T09:24:33;13.50;94.30
14122;DHT22;7139;48.114;11.442;2023-04-25T09:27:00;13.70;94.70
14122;DHT22;7139;48.114;11.442;2023-04-25T09:29:30;13.60;93.10
14122;DHT22;7139;48.114;11.442;2023-04-25T09:32:17;13.50;93.90
14122;DHT22;7139;48.114;11.442;2023-04-25T09:34:47;13.80;93.50
14122;DHT22;7139;48.114;11.442;2023-04-25T09:37:19;14.00;93.40
14122;DHT22;7139;48.114;11.442;2023-04-25T09:39:47;14.30;91.70
14122;DHT22;7139;48.114;11.442;2023-04-25T09:42:14;14.30;91.50
14122;DHT22;7139;48.114;11.442;2023-04-25T09:44:43;14.30;91.20
14122;DHT22;7139;48.114;11.442;2023-04-25T09:47:11;14.00;90.10
14122;DHT22;7139;48.114;11.442;2023-04-25T09:49:39;13.70;91.30
14122;DHT22;7139;48.114;11.442;2023-04-25T09:52:07;13.40;91.40
14122;DHT22;7139;48.114;11.442;2023-04-25T09:54:36;13.20;91.80
14122;DHT22;7139;48.114;11.442;2023-04-25T09:57:08;13.00;91.30
14122;DHT22;7139;48.114;11.442;2023-04-25T09:59:39;12.80;91.60
14122;DHT22;7139;48.114;11.442;2023-04-25T10:02:08;12.70;91.40
14122;DHT22;7139;48.114;11.442;2023-04-25T10:04:36;12.90;91.50
14122;DHT22;7139;48.114;11.442;2023-04-25T10:07:05;13.30;92.40
14122;DHT22;7139;48.114;11.442;2023-04-25T10:09:33;13.80;92.30
14122;DHT22;7139;48.114;11.442;2023-04-25T10:12:02;14.30;92.20
14122;DHT22;7139;48.114;11.442;2023-04-25T10:14:29;14.60;90.60
14122;DHT22;7139;48.114;11.442;2023-04-25T10:16:57;14.40;88.80
14122;DHT22;7139;48.114;11.442;2023-04-25T10:19:24;14.20;89.40
14122;DHT22;7139;48.114;11.442;2023-04-25T10:21:54;13.80;90.10
14122;DHT22;7139;48.114;11.442;2023-04-25T10:24:22;13.50;89.90
14122;DHT22;7139;48.114;11.442;2023-04-25T10:26:50;13.10;90.10
14122;DHT22;7139;48.114;11.442;2023-04-25T10:29:24;12.40;91.90
14122;DHT22;7139;48.114;11.442;2023-04-25T10:31:51;11.90;93.70
14122;DHT22;7139;48.114;11.442;2023-04-25T10:34:19;11.70;95.10
14122;DHT22;7139;48.114;11.442;2023-04-25T10:36:50;11.50;96.40
14122;DHT22;7139;48.114;11.442;2023-04-25T10:39:22;11.30;96.80
14122;DHT22;7139;48.114;11.442;2023-04-25T10:41:53;11.00;97.60
14122;DHT22;7139;48.114;11.442;2023-04-25T10:44:23;10.90;97.50
14122;DHT22;7139;48.114;11.442;2023-04-25T10:46:52;10.90;97.80
14122;DHT22;7139;48.114;11.442;2023-04-25T10:49:31;11.00;98.10
14122;DHT22;7139;48.114;11.442;2023-04-25T10:52:19;11.10;97.60
14122;DHT22;7139;48.114;11.442;2023-04-25T10:54:52;10.90;98.30
14122;DHT22;7139;48.114;11.442;2023-04-25T10:57:29;10.70;98.70
14122;DHT22;7139;48.114;11.442;2023-04-25T11:00:05;10.70;99.20
14122;DHT22;7139;48.114;11.442;2023-04-25T11:02:32;10.60;98.70
14122;DHT22;7139;48.114;11.442;2023-04-25T11:05:03;10.70;98.60
14122;DHT22;7139;48.114;11.442;2023-04-25T11:07:37;10.80;98.50
14122;DHT22;7139;48.114;11.442;2023-04-25T11:10:05;10.90;97.50
14122;DHT22;7139;48.114;11.442;2023-04-25T11:12:32;11.00;96.50
14122;DHT22;7139;48.114;11.442;2023-04-25T11:15:01;11.00;96.20
14122;DHT22;7139;48.114;11.442;2023-04-25T11:17:29;10.90;94.80
14122;DHT22;7139;48.114;11.442;2023-04-25T11:19:56;10.70;95.00
14122;DHT22;7139;48.114;11.442;2023-04-25T11:22:23;10.50;95.30
14122;DHT22;7139;48.114;11.442;2023-04-25T11:24:50;10.40;96.00
14122;DHT22;7139;48.114;11.442;2023-04-25T11:27:17;10.20;97.00
14122;DHT22;7139;48.114;11.442;2023-04-25T11:29:44;10.20;97.90
14122;DHT22;7139;48.114;11.442;2023-04-25T11:32:14;10.10;97.90
14122;DHT22;7139;48.114;11.442;2023-04-25T11:34:43;10.00;97.90
14122;DHT22;7139;48.114;11.442;2023-04-25T11:37:10;9.90;99.30
14122;DHT22;7139;48.114;11.442;2023-04-25T11:39:42;9.70;99.90
14122;DHT22;7139;48.114;11.442;2023-04-25T11:42:10;9.50;99.90
14122;DHT22;7139;48.114;11.442;2023-04-25T11:44:38;9.50;99.90
14122;DHT22;7139;48.114;11.442;2023-04-25T11:47:05;9.50;99.90
14122;DHT22;7139;48.114;11.442;2023-04-25T11:49:33;9.30;99.90
14122;DHT22;7139;48.114;11.442;2023-04-25T11:52:01;9.20;99.90
14122;DHT22;7139;48.114;11.442;2023-04-25T11:54:27;9.10;99.90
14122;DHT22;7139;48.114;11.442;2023-04-25T11:56:54;9.10;99.90
14122;DHT22;7139;48.114;11.442;2023-04-25T11:59:24;9.10;99.90
14122;DHT22;7139;48.114;11.442;2023-04-25T12:01:57;9.20;99.90
14122;DHT22;7139;48.114;11.442;2023-04-25T12:04:30;9.10;99.90
14122;DHT22;7139;48.114;11.442;2023-04-25T12:06:58;9.00;99.90
14122;DHT22;7139;48.114;11.442;2023-04-25T12:09:29;8.90;99.90
14122;DHT22;7139;48.114;11.442;2023-04-25T12:11:58;8.80;99.90
14122;DHT22;7139;48.114;11.442;2023-04-25T12:14:25;8.80;99.90
14122;DHT22;7139;48.114;11.442;2023-04-25T12:16:54;8.60;99.90
14122;DHT22;7139;48.114;11.442;2023-04-25T12:19:21;8.50;99.90
14122;DHT22;7139;48.114;11.442;2023-04-25T12:21:49;8.60;99.90
14122;DHT22;7139;48.114;11.442;2023-04-25T12:24:23;8.60;99.90
14122;DHT22;7139;48.114;11.442;2023-04-25T12:26:52;8.60;99.90
14122;DHT22;7139;48.114;11.442;2023-04-25T12:29:21;8.60;99.90
14122;DHT22;7139;48.114;11.442;2023-04-25T12:31:48;8.60;99.90
14122;DHT22;7139;48.114;11.442;2023-04-25T12:34:16;8.70;99.90
14122;DHT22;7139;48.114;11.442;2023-04-25T12:36:43;8.70;99.90
14122;DHT22;7139;48.114;11.442;2023-04-25T12:39:14;8.80;99.90
14122;DHT22;7139;48.114;11.442;2023-04-25T12:41:44;8.90;99.90
14122;DHT22;7139;48.114;11.442;2023-04-25T12:44:11;8.90;99.90
14122;DHT22;7139;48.114;11.442;2023-04-25T12:46:38;8.80;99.90
14122;DHT22;7139;48.114;11.442;2023-04-25T12:49:05;8.80;99.90
14122;DHT22;7139;48.114;11.442;2023-04-25T12:51:33;8.70;99.90
14122;DHT22;7139;48.114;11.442;2023-04-25T12:54:00;8.80;99.90
14122;DHT22;7139;48.114;11.442;2023-04-25T12:56:27;9.00;99.90
14122;DHT22;7139;48.114;11.442;2023-04-25T12:58:55;8.90;99.90
14122;DHT22;7139;48.114;11.442;2023-04-25T13:01:24;8.80;99.90
14122;DHT22;7139;48.114;11.442;2023-04-25T13:03:52;8.70;99.90
14122;DHT22;7139;48.114;11.442;2023-04-25T13:06:19;8.90;99.90
14122;DHT22;7139;48.114;11.442;2023-04-25T13:08:46;8.80;99.90
14122;DHT22;7139;48.114;11.442;2023-04-25T13:11:13;8.80;99.90
14122;DHT22;7139;48.114;11.442;2023-04-25T13:13:41;8.90;99.90
14122;DHT22;7139;48.114;11.442;2023-04-25T13:16:09;8.90;99.90
14122;DHT22;7139;48.114;11.442;2023-04-25T13:18:36;8.90;99.90
14122;DHT22;7139;48.114;11.442;2023-04-25T13:21:03;8.90;99.90
14122;DHT22;7139;48.114;11.442;2023-04-25T13:23:30;8.80;99.90
14122;DHT22;7139;48.114;11.442;2023-04-25T13:25:57;8.90;99.90
14122;DHT22;7139;48.114;11.442;2023-04-25T13:28:25;8.90;99.90
14122;DHT22;7139;48.114;11.442;2023-04-25T13:30:52;9.00;99.90
14122;DHT22;7139;48.114;11.442;2023-04-25T13:33:20;9.00;99.90
14122;DHT22;7139;48.114;11.442;2023-04-25T13:35:50;8.90;99.90
14122;DHT22;7139;48.114;11.442;2023-04-25T13:38:20;8.70;99.90
14122;DHT22;7139;48.114;11.442;2023-04-25T13:40:47;8.60;99.90
14122;DHT22;7139;48.114;11.442;2023-04-25T13:43:14;8.60;99.90
14122;DHT22;7139;48.114;11.442;2023-04-25T13:45:41;8.60;99.90
14122;DHT22;7139;48.114;11.442;2023-04-25T13:48:08;8.60;99.90
14122;DHT22;7139;48.114;11.442;2023-04-25T13:50:36;8.60;99.90
14122;DHT22;7139;48.114;11.442;2023-04-25T13:53:03;8.60;99.90
14122;DHT22;7139;48.114;11.442;2023-04-25T13:55:30;8.40;99.90
14122;DHT22;7139;48.114;11.442;2023-04-25T13:57:57;8.40;99.90
14122;DHT22;7139;48.114;11.442;2023-04-25T14:00:23;8.40;99.90
14122;DHT22;7139;48.114;11.442;2023-04-25T14:02:50;8.30;99.90
14122;DHT22;7139;48.114;11.442;2023-04-25T14:05:18;8.30;99.90
14122;DHT22;7139;48.114;11.442;2023-04-25T14:07:47;8.40;99.90
14122;DHT22;7139;48.114;11.442;2023-04-25T14:10:13;8.50;99.90
14122;DHT22;7139;48.114;11.442;2023-04-25T14:12:41;8.50;99.90
14122;DHT22;7139;48.114;11.442;2023-04-25T14:15:08;8.40;99.90
14122;DHT22;7139;48.114;11.442;2023-04-25T14:17:35;8.40;99.90
14122;DHT22;7139;48.114;11.442;2023-04-25T14:20:01;8.50;99.90
14122;DHT22;7139;48.114;11.442;2023-04-25T14:22:31;8.90;99.90
14122;DHT22;7139;48.114;11.442;2023-04-25T14:24:59;9.20;99.90
14122;DHT22;7139;48.114;11.442;2023-04-25T14:27:26;9.50;99.90
14122;DHT22;7139;48.114;11.442;2023-04-25T14:29:53;9.70;99.90
14122;DHT22;7139;48.114;11.442;2023-04-25T14:32:20;9.70;99.90
14122;DHT22;7139;48.114;11.442;2023-04-25T14:34:46;9.70;99.90
14122;DHT22;7139;48.114;11.442;2023-04-25T14:37:13;9.70;99.90
14122;DHT22;7139;48.114;11.442;2023-04-25T14:39:40;9.70;99.90
14122;DHT22;7139;48.114;11.442;2023-04-25T14:42:08;9.60;99.90
14122;DHT22;7139;48.114;11.442;2023-04-25T14:44:36;9.60;99.90
14122;DHT22;7139;48.114;11.442;2023-04-25T14:47:03;9.70;99.90
14122;DHT22;7139;48.114;11.442;2023-04-25T14:49:31;9.80;99.90
14122;DHT22;7139;48.114;11.442;2023-04-25T14:51:58;9.70;99.90
14122;DHT22;7139;48.114;11.442;2023-04-25T14:54:25;9.70;99.90
14122;DHT22;7139;48.114;11.442;2023-04-25T14:56:52;9.80;99.90
14122;DHT22;7139;48.114;11.442;2023-04-25T14:59:20;9.90;99.90
14122;DHT22;7139;48.114;11.442;2023-04-25T15:01:47;10.00;99.90
14122;DHT22;7139;48.114;11.442;2023-04-25T15:04:13;10.00;99.90
14122;DHT22;7139;48.114;11.442;2023-04-25T15:06:42;9.90;99.90
14122;DHT22;7139;48.114;11.442;2023-04-25T15:09:09;9.90;99.90
14122;DHT22;7139;48.114;11.442;2023-04-25T15:11:37;9.90;99.90
14122;DHT22;7139;48.114;11.442;2023-04-25T15:14:04;9.90;99.90
14122;DHT22;7139;48.114;11.442;2023-04-25T15:16:32;9.90;99.90
14122;DHT22;7139;48.114;11.442;2023-04-25T15:18:59;9.90;99.90
14122;DHT22;7139;48.114;11.442;2023-04-25T15:21:29;10.00;99.90
14122;DHT22;7139;48.114;11.442;2023-04-25T15:23:56;10.00;99.90
14122;DHT22;7139;48.114;11.442;2023-04-25T15:26:22;9.90;99.90
14122;DHT22;7139;48.114;11.442;2023-04-25T15:28:49;9.90;99.90
14122;DHT22;7139;48.114;11.442;2023-04-25T15:31:16;10.00;99.90
14122;DHT22;7139;48.114;11.442;2023-04-25T15:33:44;9.80;99.90
14122;DHT22;7139;48.114;11.442;2023-04-25T15:36:11;9.80;99.90
14122;DHT22;7139;48.114;11.442;2023-04-25T15:38:38;9.60;99.90
14122;DHT22;7139;48.114;11.442;2023-04-25T15:41:04;9.60;99.90
14122;DHT22;7139;48.114;11.442;2023-04-25T15:43:31;9.60;99.90
14122;DHT22;7139;48.114;11.442;2023-04-25T15:46:01;9.50;99.90